NWWW METAR and TAF weather

Enter ICAO airport designator
Station Type Date Time Source
NWWW METAR 2020/07/14 17:00 UTC NOAA

NWWW 141700Z AUTO 29005KT 9999 FEW012 OVC120 19/19 Q1012 TEMPO 4000 RA BKN014


Station Type Date Time Source
NWWW Decoded METAR 2020/07/14 17:00 UTC NOAA

La Tontouta Nlle-Caledonie , New Caledonia (NWWW) 22-01S 166-13E 14M
Jul 14, 2020 - 01:00 PM EDT / 2020.07.14 1700 UTC
Wind: from the WNW (290 degrees) at 6 MPH (5 KT):0
Visibility: greater than 7 mile(s):0
Sky conditions: overcast
Temperature: 66 F (19 C)
Dew Point: 66 F (19 C)
Relative Humidity: 100%
Pressure (altimeter): 29.88 in. Hg (1012 hPa)
ob: NWWW 141700Z AUTO 29005KT 9999 FEW012 OVC120 19/19 Q1012 TEMPO 4000 RA BKN014
cycle: 17

Station Type Date Time Source
NWWW TAF 2020/07/14 12:59 UTC NOAA

TAF NWWW 141100Z 1412/1512 VRB02KT 9999 -RA FEW040 OVC130 PROB40
TEMPO 1412/1420 4000 RA BKN014

Example: see airport list